sensor_id;sensor_type;location;lat;lon;timestamp;temperature;humidity
2489;DHT22;1255;48.716;9.124;2024-01-07T00:00:42;4.50;99.90
2489;DHT22;1255;48.716;9.124;2024-01-07T00:03:09;4.50;99.90
2489;DHT22;1255;48.716;9.124;2024-01-07T00:05:37;4.50;99.90
2489;DHT22;1255;48.716;9.124;2024-01-07T00:08:04;4.50;99.90
2489;DHT22;1255;48.716;9.124;2024-01-07T00:10:31;4.50;99.90
2489;DHT22;1255;48.716;9.124;2024-01-07T00:12:58;4.50;99.90
2489;DHT22;1255;48.716;9.124;2024-01-07T00:15:25;4.50;99.90
2489;DHT22;1255;48.716;9.124;2024-01-07T00:17:52;4.50;99.90
2489;DHT22;1255;48.716;9.124;2024-01-07T00:20:19;4.40;99.90
2489;DHT22;1255;48.716;9.124;2024-01-07T00:22:47;4.50;99.90
2489;DHT22;1255;48.716;9.124;2024-01-07T00:25:13;4.50;99.90
2489;DHT22;1255;48.716;9.124;2024-01-07T00:27:40;4.50;99.90
2489;DHT22;1255;48.716;9.124;2024-01-07T00:30:07;4.50;99.90
2489;DHT22;1255;48.716;9.124;2024-01-07T00:32:34;4.50;99.90
2489;DHT22;1255;48.716;9.124;2024-01-07T00:35:01;4.40;99.90
2489;DHT22;1255;48.716;9.124;2024-01-07T00:37:27;4.40;99.90
2489;DHT22;1255;48.716;9.124;2024-01-07T00:39:56;4.40;99.90
2489;DHT22;1255;48.716;9.124;2024-01-07T00:42:22;4.50;99.90
2489;DHT22;1255;48.716;9.124;2024-01-07T00:44:49;4.50;99.90
2489;DHT22;1255;48.716;9.124;2024-01-07T00:47:16;4.50;99.90
2489;DHT22;1255;48.716;9.124;2024-01-07T00:49:42;4.50;99.90
2489;DHT22;1255;48.716;9.124;2024-01-07T00:52:09;4.50;99.90
2489;DHT22;1255;48.716;9.124;2024-01-07T00:54:36;4.50;99.90
2489;DHT22;1255;48.716;9.124;2024-01-07T00:57:04;4.50;99.90
2489;DHT22;1255;48.716;9.124;2024-01-07T00:59:31;4.50;99.90
2489;DHT22;1255;48.716;9.124;2024-01-07T01:01:57;4.40;99.90
2489;DHT22;1255;48.716;9.124;2024-01-07T01:04:24;4.40;99.90
2489;DHT22;1255;48.716;9.124;2024-01-07T01:06:51;4.40;99.90
2489;DHT22;1255;48.716;9.124;2024-01-07T01:09:18;4.40;99.90
2489;DHT22;1255;48.716;9.124;2024-01-07T01:11:44;4.50;99.90
2489;DHT22;1255;48.716;9.124;2024-01-07T01:14:12;4.50;99.90
2489;DHT22;1255;48.716;9.124;2024-01-07T01:16:39;4.50;99.90
2489;DHT22;1255;48.716;9.124;2024-01-07T01:19:06;4.50;99.90
2489;DHT22;1255;48.716;9.124;2024-01-07T01:21:34;4.50;99.90
2489;DHT22;1255;48.716;9.124;2024-01-07T01:24:00;4.40;99.90
2489;DHT22;1255;48.716;9.124;2024-01-07T01:26:27;4.40;99.90
2489;DHT22;1255;48.716;9.124;2024-01-07T01:28:54;4.40;99.90
2489;DHT22;1255;48.716;9.124;2024-01-07T01:31:22;4.40;99.90
2489;DHT22;1255;48.716;9.124;2024-01-07T01:33:49;4.40;99.90
2489;DHT22;1255;48.716;9.124;2024-01-07T01:36:15;4.40;99.90
2489;DHT22;1255;48.716;9.124;2024-01-07T01:38:42;4.40;99.90
2489;DHT22;1255;48.716;9.124;2024-01-07T01:41:09;4.40;99.90
2489;DHT22;1255;48.716;9.124;2024-01-07T01:43:36;4.30;99.90
2489;DHT22;1255;48.716;9.124;2024-01-07T01:46:02;4.30;99.90
2489;DHT22;1255;48.716;9.124;2024-01-07T01:48:31;4.30;99.90
2489;DHT22;1255;48.716;9.124;2024-01-07T01:50:58;4.20;99.90
2489;DHT22;1255;48.716;9.124;2024-01-07T01:53:25;4.20;99.90
2489;DHT22;1255;48.716;9.124;2024-01-07T01:55:53;4.30;99.90
2489;DHT22;1255;48.716;9.124;2024-01-07T01:58:22;4.20;99.90
2489;DHT22;1255;48.716;9.124;2024-01-07T02:00:49;4.20;99.90
2489;DHT22;1255;48.716;9.124;2024-01-07T02:03:16;4.20;99.90
2489;DHT22;1255;48.716;9.124;2024-01-07T02:05:44;4.20;99.90
2489;DHT22;1255;48.716;9.124;2024-01-07T02:08:12;4.20;99.90
2489;DHT22;1255;48.716;9.124;2024-01-07T02:10:38;4.20;99.90
2489;DHT22;1255;48.716;9.124;2024-01-07T02:13:05;4.20;99.90
2489;DHT22;1255;48.716;9.124;2024-01-07T02:15:32;4.20;99.90
2489;DHT22;1255;48.716;9.124;2024-01-07T02:17:59;4.20;99.90
2489;DHT22;1255;48.716;9.124;2024-01-07T02:20:26;4.20;99.90
2489;DHT22;1255;48.716;9.124;2024-01-07T02:22:54;4.20;99.90
2489;DHT22;1255;48.716;9.124;2024-01-07T02:25:24;4.10;99.90
2489;DHT22;1255;48.716;9.124;2024-01-07T02:27:51;4.10;99.90
2489;DHT22;1255;48.716;9.124;2024-01-07T02:30:18;4.10;99.90
2489;DHT22;1255;48.716;9.124;2024-01-07T02:32:44;4.10;99.90
2489;DHT22;1255;48.716;9.124;2024-01-07T02:35:11;4.10;99.90
2489;DHT22;1255;48.716;9.124;2024-01-07T02:37:38;4.10;99.90
2489;DHT22;1255;48.716;9.124;2024-01-07T02:40:06;4.10;99.90
2489;DHT22;1255;48.716;9.124;2024-01-07T02:42:34;4.10;99.90
2489;DHT22;1255;48.716;9.124;2024-01-07T02:45:01;4.10;99.90
2489;DHT22;1255;48.716;9.124;2024-01-07T02:47:28;4.10;99.90
2489;DHT22;1255;48.716;9.124;2024-01-07T02:49:54;4.10;99.90
2489;DHT22;1255;48.716;9.124;2024-01-07T02:52:21;4.10;99.90
2489;DHT22;1255;48.716;9.124;2024-01-07T02:54:48;4.10;99.90
2489;DHT22;1255;48.716;9.124;2024-01-07T02:57:15;4.10;99.90
2489;DHT22;1255;48.716;9.124;2024-01-07T02:59:43;4.10;99.90
2489;DHT22;1255;48.716;9.124;2024-01-07T03:02:09;4.00;99.90
2489;DHT22;1255;48.716;9.124;2024-01-07T03:04:36;4.00;99.90
2489;DHT22;1255;48.716;9.124;2024-01-07T03:07:03;4.00;99.90
2489;DHT22;1255;48.716;9.124;2024-01-07T03:09:30;4.00;99.90
2489;DHT22;1255;48.716;9.124;2024-01-07T03:11:56;4.00;99.90
2489;DHT22;1255;48.716;9.124;2024-01-07T03:14:23;4.00;99.90
2489;DHT22;1255;48.716;9.124;2024-01-07T03:16:51;4.00;99.90
2489;DHT22;1255;48.716;9.124;2024-01-07T03:19:18;4.00;99.90
2489;DHT22;1255;48.716;9.124;2024-01-07T03:21:47;4.10;99.90
2489;DHT22;1255;48.716;9.124;2024-01-07T03:24:14;4.10;99.90
2489;DHT22;1255;48.716;9.124;2024-01-07T03:26:40;4.10;99.90
2489;DHT22;1255;48.716;9.124;2024-01-07T03:29:07;4.10;99.90
2489;DHT22;1255;48.716;9.124;2024-01-07T03:31:34;4.10;99.90
2489;DHT22;1255;48.716;9.124;2024-01-07T03:34:02;4.00;99.90
2489;DHT22;1255;48.716;9.124;2024-01-07T03:36:29;4.00;99.90
2489;DHT22;1255;48.716;9.124;2024-01-07T03:38:55;4.00;99.90
2489;DHT22;1255;48.716;9.124;2024-01-07T03:41:22;4.10;99.90
2489;DHT22;1255;48.716;9.124;2024-01-07T03:43:49;4.00;99.90
2489;DHT22;1255;48.716;9.124;2024-01-07T03:46:16;4.00;99.90
2489;DHT22;1255;48.716;9.124;2024-01-07T03:48:43;4.00;99.90
2489;DHT22;1255;48.716;9.124;2024-01-07T03:51:12;4.00;99.90
2489;DHT22;1255;48.716;9.124;2024-01-07T03:53:38;4.10;99.90
2489;DHT22;1255;48.716;9.124;2024-01-07T03:56:06;4.00;99.90
2489;DHT22;1255;48.716;9.124;2024-01-07T03:58:32;4.00;99.90
2489;DHT22;1255;48.716;9.124;2024-01-07T04:01:00;4.00;99.90
2489;DHT22;1255;48.716;9.124;2024-01-07T04:03:27;4.00;99.90
2489;DHT22;1255;48.716;9.124;2024-01-07T04:05:53;4.00;99.90
2489;DHT22;1255;48.716;9.124;2024-01-07T04:08:21;3.90;99.90
2489;DHT22;1255;48.716;9.124;2024-01-07T04:10:49;3.90;99.90
2489;DHT22;1255;48.716;9.124;2024-01-07T04:13:15;3.90;99.90
2489;DHT22;1255;48.716;9.124;2024-01-07T04:15:42;3.90;99.90
2489;DHT22;1255;48.716;9.124;2024-01-07T04:18:09;3.90;99.90
2489;DHT22;1255;48.716;9.124;2024-01-07T04:20:36;3.90;99.90
2489;DHT22;1255;48.716;9.124;2024-01-07T04:23:03;3.90;99.90
2489;DHT22;1255;48.716;9.124;2024-01-07T04:25:31;3.80;99.90
2489;DHT22;1255;48.716;9.124;2024-01-07T04:27:57;3.80;99.90
2489;DHT22;1255;48.716;9.124;2024-01-07T04:30:24;3.80;99.90
2489;DHT22;1255;48.716;9.124;2024-01-07T04:32:51;3.80;99.90
2489;DHT22;1255;48.716;9.124;2024-01-07T04:35:17;3.70;99.90
2489;DHT22;1255;48.716;9.124;2024-01-07T04:37:44;3.70;99.90
2489;DHT22;1255;48.716;9.124;2024-01-07T04:40:11;3.70;99.90
2489;DHT22;1255;48.716;9.124;2024-01-07T04:42:40;3.70;99.90
2489;DHT22;1255;48.716;9.124;2024-01-07T04:45:07;3.60;99.90
2489;DHT22;1255;48.716;9.124;2024-01-07T04:47:34;3.70;99.90
2489;DHT22;1255;48.716;9.124;2024-01-07T04:50:01;3.70;99.90
2489;DHT22;1255;48.716;9.124;2024-01-07T04:52:28;3.70;99.90
2489;DHT22;1255;48.716;9.124;2024-01-07T04:54:55;3.70;99.90
2489;DHT22;1255;48.716;9.124;2024-01-07T04:57:22;3.70;99.90
2489;DHT22;1255;48.716;9.124;2024-01-07T04:59:50;3.60;99.90
2489;DHT22;1255;48.716;9.124;2024-01-07T05:02:17;3.60;99.90
2489;DHT22;1255;48.716;9.124;2024-01-07T05:04:44;3.60;99.90
2489;DHT22;1255;48.716;9.124;2024-01-07T05:07:11;3.60;99.90
2489;DHT22;1255;48.716;9.124;2024-01-07T05:09:38;3.60;99.90
2489;DHT22;1255;48.716;9.124;2024-01-07T05:12:06;3.60;99.90
2489;DHT22;1255;48.716;9.124;2024-01-07T05:14:32;3.60;99.90
2489;DHT22;1255;48.716;9.124;2024-01-07T05:17:00;3.70;99.90
2489;DHT22;1255;48.716;9.124;2024-01-07T05:19:27;3.70;99.90
2489;DHT22;1255;48.716;9.124;2024-01-07T05:21:54;3.70;99.90
2489;DHT22;1255;48.716;9.124;2024-01-07T05:24:21;3.70;99.90
2489;DHT22;1255;48.716;9.124;2024-01-07T05:26:48;3.70;99.90
2489;DHT22;1255;48.716;9.124;2024-01-07T05:29:14;3.70;99.90
2489;DHT22;1255;48.716;9.124;2024-01-07T05:31:41;3.70;99.90
2489;DHT22;1255;48.716;9.124;2024-01-07T05:34:09;3.80;99.90
2489;DHT22;1255;48.716;9.124;2024-01-07T05:36:36;3.80;99.90
2489;DHT22;1255;48.716;9.124;2024-01-07T05:39:03;3.80;99.90
2489;DHT22;1255;48.716;9.124;2024-01-07T05:41:29;3.80;99.90
2489;DHT22;1255;48.716;9.124;2024-01-07T05:43:56;3.70;99.90
2489;DHT22;1255;48.716;9.124;2024-01-07T05:46:23;3.70;99.90
2489;DHT22;1255;48.716;9.124;2024-01-07T05:48:50;3.70;99.90
2489;DHT22;1255;48.716;9.124;2024-01-07T05:51:18;3.70;99.90
2489;DHT22;1255;48.716;9.124;2024-01-07T05:53:45;3.70;99.90
2489;DHT22;1255;48.716;9.124;2024-01-07T05:56:12;3.70;99.90
2489;DHT22;1255;48.716;9.124;2024-01-07T05:58:38;3.60;99.90
2489;DHT22;1255;48.716;9.124;2024-01-07T06:01:06;3.60;99.90
2489;DHT22;1255;48.716;9.124;2024-01-07T06:03:33;3.60;99.90
2489;DHT22;1255;48.716;9.124;2024-01-07T06:06:00;3.60;99.90
2489;DHT22;1255;48.716;9.124;2024-01-07T06:08:29;3.60;99.90
2489;DHT22;1255;48.716;9.124;2024-01-07T06:10:55;3.60;99.90
2489;DHT22;1255;48.716;9.124;2024-01-07T06:13:22;3.60;99.90
2489;DHT22;1255;48.716;9.124;2024-01-07T06:15:49;3.60;99.90
2489;DHT22;1255;48.716;9.124;2024-01-07T06:18:16;3.60;99.90
2489;DHT22;1255;48.716;9.124;2024-01-07T06:20:43;3.50;99.90
2489;DHT22;1255;48.716;9.124;2024-01-07T06:23:09;3.50;99.90
2489;DHT22;1255;48.716;9.124;2024-01-07T06:25:37;3.50;99.90
2489;DHT22;1255;48.716;9.124;2024-01-07T06:28:05;3.50;99.90
2489;DHT22;1255;48.716;9.124;2024-01-07T06:30:31;3.50;99.90
2489;DHT22;1255;48.716;9.124;2024-01-07T06:32:59;3.50;99.90
2489;DHT22;1255;48.716;9.124;2024-01-07T06:35:25;3.50;99.90
2489;DHT22;1255;48.716;9.124;2024-01-07T06:37:52;3.50;99.90
2489;DHT22;1255;48.716;9.124;2024-01-07T06:40:19;3.50;99.90
2489;DHT22;1255;48.716;9.124;2024-01-07T06:42:47;3.50;99.90
2489;DHT22;1255;48.716;9.124;2024-01-07T06:45:16;3.50;99.90
2489;DHT22;1255;48.716;9.124;2024-01-07T06:47:42;3.50;99.90
2489;DHT22;1255;48.716;9.124;2024-01-07T06:50:10;3.50;99.90
2489;DHT22;1255;48.716;9.124;2024-01-07T06:52:37;3.40;99.90
2489;DHT22;1255;48.716;9.124;2024-01-07T06:55:04;3.40;99.90
2489;DHT22;1255;48.716;9.124;2024-01-07T06:57:31;3.40;99.90
2489;DHT22;1255;48.716;9.124;2024-01-07T06:59:59;3.40;99.90
2489;DHT22;1255;48.716;9.124;2024-01-07T07:02:25;3.40;99.90
2489;DHT22;1255;48.716;9.124;2024-01-07T07:04:52;3.40;99.90
2489;DHT22;1255;48.716;9.124;2024-01-07T07:07:19;3.40;99.90
2489;DHT22;1255;48.716;9.124;2024-01-07T07:09:46;3.40;99.90
2489;DHT22;1255;48.716;9.124;2024-01-07T07:12:13;3.40;99.90
2489;DHT22;1255;48.716;9.124;2024-01-07T07:14:43;3.40;99.90
2489;DHT22;1255;48.716;9.124;2024-01-07T07:17:11;3.40;99.90
2489;DHT22;1255;48.716;9.124;2024-01-07T07:19:38;3.50;99.90
2489;DHT22;1255;48.716;9.124;2024-01-07T07:22:05;3.50;99.90
2489;DHT22;1255;48.716;9.124;2024-01-07T07:24:31;3.60;99.90
2489;DHT22;1255;48.716;9.124;2024-01-07T07:26:58;3.60;99.90
2489;DHT22;1255;48.716;9.124;2024-01-07T07:29:25;3.60;99.90
2489;DHT22;1255;48.716;9.124;2024-01-07T07:31:52;3.60;99.90
2489;DHT22;1255;48.716;9.124;2024-01-07T07:34:20;3.50;99.90
2489;DHT22;1255;48.716;9.124;2024-01-07T07:36:46;3.50;99.90
2489;DHT22;1255;48.716;9.124;2024-01-07T07:39:13;3.40;99.90
2489;DHT22;1255;48.716;9.124;2024-01-07T07:41:40;3.40;99.90
2489;DHT22;1255;48.716;9.124;2024-01-07T07:44:07;3.40;99.90
2489;DHT22;1255;48.716;9.124;2024-01-07T07:46:33;3.30;99.90
2489;DHT22;1255;48.716;9.124;2024-01-07T07:49:00;3.30;99.90
2489;DHT22;1255;48.716;9.124;2024-01-07T07:51:29;3.30;99.90
2489;DHT22;1255;48.716;9.124;2024-01-07T07:53:55;3.30;99.90
2489;DHT22;1255;48.716;9.124;2024-01-07T07:56:22;3.30;99.90
2489;DHT22;1255;48.716;9.124;2024-01-07T07:58:49;3.30;99.90
2489;DHT22;1255;48.716;9.124;2024-01-07T08:01:17;3.40;99.90
2489;DHT22;1255;48.716;9.124;2024-01-07T08:03:45;3.30;99.90
2489;DHT22;1255;48.716;9.124;2024-01-07T08:06:11;3.30;99.90
2489;DHT22;1255;48.716;9.124;2024-01-07T08:08:40;3.30;99.90
2489;DHT22;1255;48.716;9.124;2024-01-07T08:11:06;3.20;99.90
2489;DHT22;1255;48.716;9.124;2024-01-07T08:13:37;3.20;99.90
2489;DHT22;1255;48.716;9.124;2024-01-07T08:16:05;3.20;99.90
2489;DHT22;1255;48.716;9.124;2024-01-07T08:18:32;3.30;99.90
2489;DHT22;1255;48.716;9.124;2024-01-07T08:20:58;3.30;99.90
2489;DHT22;1255;48.716;9.124;2024-01-07T08:23:25;3.20;99.90
2489;DHT22;1255;48.716;9.124;2024-01-07T08:25:54;3.20;99.90
2489;DHT22;1255;48.716;9.124;2024-01-07T08:28:20;3.20;99.90
2489;DHT22;1255;48.716;9.124;2024-01-07T08:30:47;3.10;99.90
2489;DHT22;1255;48.716;9.124;2024-01-07T08:33:14;3.10;99.90
2489;DHT22;1255;48.716;9.124;2024-01-07T08:35:41;3.10;99.90
2489;DHT22;1255;48.716;9.124;2024-01-07T08:38:08;3.10;99.90
2489;DHT22;1255;48.716;9.124;2024-01-07T08:40:35;3.10;99.90
2489;DHT22;1255;48.716;9.124;2024-01-07T08:43:03;3.10;99.90
2489;DHT22;1255;48.716;9.124;2024-01-07T08:45:30;3.00;99.90
2489;DHT22;1255;48.716;9.124;2024-01-07T08:47:57;3.00;99.90
2489;DHT22;1255;48.716;9.124;2024-01-07T08:50:23;2.90;99.90
2489;DHT22;1255;48.716;9.124;2024-01-07T08:53:02;2.90;99.90
2489;DHT22;1255;48.716;9.124;2024-01-07T08:55:34;2.90;99.90
2489;DHT22;1255;48.716;9.124;2024-01-07T08:58:02;2.90;99.90
2489;DHT22;1255;48.716;9.124;2024-01-07T09:00:31;2.80;99.90
2489;DHT22;1255;48.716;9.124;2024-01-07T09:02:58;2.90;99.90
2489;DHT22;1255;48.716;9.124;2024-01-07T09:05:28;2.80;99.90
2489;DHT22;1255;48.716;9.124;2024-01-07T09:07:55;2.80;99.90
2489;DHT22;1255;48.716;9.124;2024-01-07T09:10:22;2.80;99.90
2489;DHT22;1255;48.716;9.124;2024-01-07T09:12:50;2.80;99.90
2489;DHT22;1255;48.716;9.124;2024-01-07T09:15:20;2.80;99.90
2489;DHT22;1255;48.716;9.124;2024-01-07T09:17:47;2.80;99.90
2489;DHT22;1255;48.716;9.124;2024-01-07T09:20:14;2.70;99.90
2489;DHT22;1255;48.716;9.124;2024-01-07T09:22:40;2.70;99.90
2489;DHT22;1255;48.716;9.124;2024-01-07T09:25:09;2.60;99.90
2489;DHT22;1255;48.716;9.124;2024-01-07T09:27:36;2.70;99.90
2489;DHT22;1255;48.716;9.124;2024-01-07T09:30:03;2.70;99.90
2489;DHT22;1255;48.716;9.124;2024-01-07T09:32:32;2.70;99.90
2489;DHT22;1255;48.716;9.124;2024-01-07T09:34:59;2.70;99.90
2489;DHT22;1255;48.716;9.124;2024-01-07T09:37:26;2.80;99.90
2489;DHT22;1255;48.716;9.124;2024-01-07T09:39:52;2.80;99.90
2489;DHT22;1255;48.716;9.124;2024-01-07T09:42:19;2.80;99.90
2489;DHT22;1255;48.716;9.124;2024-01-07T09:44:46;2.80;99.90
2489;DHT22;1255;48.716;9.124;2024-01-07T09:47:14;2.90;99.90
2489;DHT22;1255;48.716;9.124;2024-01-07T09:49:43;2.90;99.90
2489;DHT22;1255;48.716;9.124;2024-01-07T09:52:11;2.90;99.90
2489;DHT22;1255;48.716;9.124;2024-01-07T09:54:39;2.80;99.90
2489;DHT22;1255;48.716;9.124;2024-01-07T09:57:07;2.80;99.90
2489;DHT22;1255;48.716;9.124;2024-01-07T09:59:34;2.80;99.90
2489;DHT22;1255;48.716;9.124;2024-01-07T10:02:02;2.80;99.90
2489;DHT22;1255;48.716;9.124;2024-01-07T10:04:29;2.80;99.90
2489;DHT22;1255;48.716;9.124;2024-01-07T10:06:58;2.80;99.90
2489;DHT22;1255;48.716;9.124;2024-01-07T10:09:29;2.80;99.90
2489;DHT22;1255;48.716;9.124;2024-01-07T10:11:56;2.90;99.90
2489;DHT22;1255;48.716;9.124;2024-01-07T10:14:22;2.90;99.90
2489;DHT22;1255;48.716;9.124;2024-01-07T10:16:50;3.00;99.90
2489;DHT22;1255;48.716;9.124;2024-01-07T10:19:20;3.00;99.90
2489;DHT22;1255;48.716;9.124;2024-01-07T10:22:00;2.90;99.90
2489;DHT22;1255;48.716;9.124;2024-01-07T10:24:35;2.90;99.90
2489;DHT22;1255;48.716;9.124;2024-01-07T10:27:03;2.80;99.90
2489;DHT22;1255;48.716;9.124;2024-01-07T10:29:30;2.80;99.90
2489;DHT22;1255;48.716;9.124;2024-01-07T10:31:57;2.80;99.90
2489;DHT22;1255;48.716;9.124;2024-01-07T10:34:25;2.80;99.90
2489;DHT22;1255;48.716;9.124;2024-01-07T10:36:54;2.80;99.90
2489;DHT22;1255;48.716;9.124;2024-01-07T10:39:23;2.80;99.90
2489;DHT22;1255;48.716;9.124;2024-01-07T10:41:52;2.80;99.90
2489;DHT22;1255;48.716;9.124;2024-01-07T10:44:22;2.80;99.90
2489;DHT22;1255;48.716;9.124;2024-01-07T10:46:50;2.70;99.90
2489;DHT22;1255;48.716;9.124;2024-01-07T10:49:20;2.60;99.90
2489;DHT22;1255;48.716;9.124;2024-01-07T10:51:54;2.60;99.90
2489;DHT22;1255;48.716;9.124;2024-01-07T10:54:28;2.50;99.90
2489;DHT22;1255;48.716;9.124;2024-01-07T10:56:58;2.50;99.90
2489;DHT22;1255;48.716;9.124;2024-01-07T10:59:26;2.50;99.90
2489;DHT22;1255;48.716;9.124;2024-01-07T11:01:53;2.40;99.90
2489;DHT22;1255;48.716;9.124;2024-01-07T11:04:23;2.40;99.90
2489;DHT22;1255;48.716;9.124;2024-01-07T11:06:55;2.30;99.90
2489;DHT22;1255;48.716;9.124;2024-01-07T11:09:30;2.30;99.90
2489;DHT22;1255;48.716;9.124;2024-01-07T11:11:59;2.30;99.90
2489;DHT22;1255;48.716;9.124;2024-01-07T11:14:36;2.30;99.90
2489;DHT22;1255;48.716;9.124;2024-01-07T11:17:05;2.40;99.90
2489;DHT22;1255;48.716;9.124;2024-01-07T11:19:31;2.30;99.90
2489;DHT22;1255;48.716;9.124;2024-01-07T11:22:22;2.30;99.90
2489;DHT22;1255;48.716;9.124;2024-01-07T11:24:51;2.30;99.90
2489;DHT22;1255;48.716;9.124;2024-01-07T11:27:19;2.30;99.90
2489;DHT22;1255;48.716;9.124;2024-01-07T11:29:53;2.40;99.90
2489;DHT22;1255;48.716;9.124;2024-01-07T11:32:22;2.30;99.90
2489;DHT22;1255;48.716;9.124;2024-01-07T11:34:50;2.30;99.90
2489;DHT22;1255;48.716;9.124;2024-01-07T11:37:19;2.40;99.90
2489;DHT22;1255;48.716;9.124;2024-01-07T11:39:46;2.30;99.90
2489;DHT22;1255;48.716;9.124;2024-01-07T11:42:15;2.30;99.90
2489;DHT22;1255;48.716;9.124;2024-01-07T11:44:48;2.30;99.90
2489;DHT22;1255;48.716;9.124;2024-01-07T11:47:15;2.30;99.90
2489;DHT22;1255;48.716;9.124;2024-01-07T11:49:42;2.30;99.90
2489;DHT22;1255;48.716;9.124;2024-01-07T11:52:09;2.30;99.90
2489;DHT22;1255;48.716;9.124;2024-01-07T11:54:37;2.20;99.90
2489;DHT22;1255;48.716;9.124;2024-01-07T11:57:04;2.20;99.90
2489;DHT22;1255;48.716;9.124;2024-01-07T11:59:33;2.20;99.90
2489;DHT22;1255;48.716;9.124;2024-01-07T12:02:00;2.20;99.90
2489;DHT22;1255;48.716;9.124;2024-01-07T12:04:27;2.20;99.90
2489;DHT22;1255;48.716;9.124;2024-01-07T12:06:54;2.20;99.90
2489;DHT22;1255;48.716;9.124;2024-01-07T12:09:20;2.20;99.90
2489;DHT22;1255;48.716;9.124;2024-01-07T12:11:47;2.20;99.90
2489;DHT22;1255;48.716;9.124;2024-01-07T12:14:14;2.20;99.90
2489;DHT22;1255;48.716;9.124;2024-01-07T12:16:43;2.10;99.90
2489;DHT22;1255;48.716;9.124;2024-01-07T12:19:10;2.10;99.90
2489;DHT22;1255;48.716;9.124;2024-01-07T12:21:37;2.10;99.90
2489;DHT22;1255;48.716;9.124;2024-01-07T12:24:06;2.10;99.90
2489;DHT22;1255;48.716;9.124;2024-01-07T12:26:32;2.20;99.90
2489;DHT22;1255;48.716;9.124;2024-01-07T12:29:00;2.30;99.90
2489;DHT22;1255;48.716;9.124;2024-01-07T12:31:29;2.30;99.90
2489;DHT22;1255;48.716;9.124;2024-01-07T12:33:57;2.20;99.90
2489;DHT22;1255;48.716;9.124;2024-01-07T12:36:24;2.20;99.90
2489;DHT22;1255;48.716;9.124;2024-01-07T12:38:52;2.20;99.90
2489;DHT22;1255;48.716;9.124;2024-01-07T12:41:20;2.20;99.90
2489;DHT22;1255;48.716;9.124;2024-01-07T12:43:47;2.10;99.90
2489;DHT22;1255;48.716;9.124;2024-01-07T12:46:14;2.10;99.90
2489;DHT22;1255;48.716;9.124;2024-01-07T12:48:41;2.00;99.90
2489;DHT22;1255;48.716;9.124;2024-01-07T12:51:09;2.00;99.90
2489;DHT22;1255;48.716;9.124;2024-01-07T12:53:36;1.90;99.90
2489;DHT22;1255;48.716;9.124;2024-01-07T12:56:03;1.90;99.90
2489;DHT22;1255;48.716;9.124;2024-01-07T12:58:30;1.80;99.90
2489;DHT22;1255;48.716;9.124;2024-01-07T13:00:57;1.80;99.90
2489;DHT22;1255;48.716;9.124;2024-01-07T13:03:24;1.80;99.90
2489;DHT22;1255;48.716;9.124;2024-01-07T13:05:50;1.70;99.90
2489;DHT22;1255;48.716;9.124;2024-01-07T13:08:19;1.70;99.90
2489;DHT22;1255;48.716;9.124;2024-01-07T13:10:47;1.70;99.90
2489;DHT22;1255;48.716;9.124;2024-01-07T13:13:14;1.70;99.90
2489;DHT22;1255;48.716;9.124;2024-01-07T13:15:41;1.70;99.90
2489;DHT22;1255;48.716;9.124;2024-01-07T13:18:08;1.70;99.90
2489;DHT22;1255;48.716;9.124;2024-01-07T13:20:37;1.60;99.90
2489;DHT22;1255;48.716;9.124;2024-01-07T13:23:05;1.60;99.90
2489;DHT22;1255;48.716;9.124;2024-01-07T13:25:33;1.60;99.90
2489;DHT22;1255;48.716;9.124;2024-01-07T13:28:00;1.60;99.90
2489;DHT22;1255;48.716;9.124;2024-01-07T13:30:26;1.60;99.90
2489;DHT22;1255;48.716;9.124;2024-01-07T13:32:53;1.60;99.90
2489;DHT22;1255;48.716;9.124;2024-01-07T13:35:22;1.60;99.90
2489;DHT22;1255;48.716;9.124;2024-01-07T13:37:53;1.60;99.90
2489;DHT22;1255;48.716;9.124;2024-01-07T13:40:19;1.70;99.90
2489;DHT22;1255;48.716;9.124;2024-01-07T13:42:47;1.70;99.90
2489;DHT22;1255;48.716;9.124;2024-01-07T13:45:16;1.60;99.90
2489;DHT22;1255;48.716;9.124;2024-01-07T13:47:45;1.60;99.90
2489;DHT22;1255;48.716;9.124;2024-01-07T13:50:12;1.50;99.90
2489;DHT22;1255;48.716;9.124;2024-01-07T13:52:39;1.50;99.90
2489;DHT22;1255;48.716;9.124;2024-01-07T13:55:07;1.40;99.90
2489;DHT22;1255;48.716;9.124;2024-01-07T13:57:35;1.30;99.90
2489;DHT22;1255;48.716;9.124;2024-01-07T14:00:03;1.30;99.90
2489;DHT22;1255;48.716;9.124;2024-01-07T14:02:34;1.20;99.90
2489;DHT22;1255;48.716;9.124;2024-01-07T14:05:03;1.20;99.90
2489;DHT22;1255;48.716;9.124;2024-01-07T14:07:31;1.20;99.90
2489;DHT22;1255;48.716;9.124;2024-01-07T14:09:58;1.20;99.90
2489;DHT22;1255;48.716;9.124;2024-01-07T14:12:25;1.10;99.90
2489;DHT22;1255;48.716;9.124;2024-01-07T14:14:51;1.10;99.90
2489;DHT22;1255;48.716;9.124;2024-01-07T14:17:19;1.10;99.90
2489;DHT22;1255;48.716;9.124;2024-01-07T14:19:46;1.00;99.90
2489;DHT22;1255;48.716;9.124;2024-01-07T14:22:13;1.10;99.90
2489;DHT22;1255;48.716;9.124;2024-01-07T14:24:41;1.10;99.90
2489;DHT22;1255;48.716;9.124;2024-01-07T14:27:07;1.10;99.90
2489;DHT22;1255;48.716;9.124;2024-01-07T14:29:36;1.00;99.90
2489;DHT22;1255;48.716;9.124;2024-01-07T14:32:04;1.00;99.90
2489;DHT22;1255;48.716;9.124;2024-01-07T14:34:32;1.00;99.90
2489;DHT22;1255;48.716;9.124;2024-01-07T14:36:59;1.10;99.90
2489;DHT22;1255;48.716;9.124;2024-01-07T14:39:25;1.20;99.90
2489;DHT22;1255;48.716;9.124;2024-01-07T14:41:52;1.20;99.90
2489;DHT22;1255;48.716;9.124;2024-01-07T14:44:20;1.30;99.90
2489;DHT22;1255;48.716;9.124;2024-01-07T14:46:46;1.30;99.90
2489;DHT22;1255;48.716;9.124;2024-01-07T14:49:13;1.40;99.90
2489;DHT22;1255;48.716;9.124;2024-01-07T14:51:42;1.40;99.90
2489;DHT22;1255;48.716;9.124;2024-01-07T14:54:08;1.50;99.90
2489;DHT22;1255;48.716;9.124;2024-01-07T14:56:35;1.30;99.90
2489;DHT22;1255;48.716;9.124;2024-01-07T14:59:02;1.20;99.90
2489;DHT22;1255;48.716;9.124;2024-01-07T15:01:28;1.10;99.90
2489;DHT22;1255;48.716;9.124;2024-01-07T15:03:55;1.00;99.90
2489;DHT22;1255;48.716;9.124;2024-01-07T15:06:22;1.00;99.90
2489;DHT22;1255;48.716;9.124;2024-01-07T15:08:50;0.90;99.90
2489;DHT22;1255;48.716;9.124;2024-01-07T15:11:19;0.80;99.90
2489;DHT22;1255;48.716;9.124;2024-01-07T15:13:46;0.80;99.90
2489;DHT22;1255;48.716;9.124;2024-01-07T15:16:12;0.70;99.90
2489;DHT22;1255;48.716;9.124;2024-01-07T15:18:39;0.70;99.90
2489;DHT22;1255;48.716;9.124;2024-01-07T15:21:06;0.70;99.90
2489;DHT22;1255;48.716;9.124;2024-01-07T15:23:34;0.70;99.90
2489;DHT22;1255;48.716;9.124;2024-01-07T15:26:02;0.60;99.90
2489;DHT22;1255;48.716;9.124;2024-01-07T15:28:29;0.60;99.90
2489;DHT22;1255;48.716;9.124;2024-01-07T15:30:55;0.50;99.90
2489;DHT22;1255;48.716;9.124;2024-01-07T15:33:22;0.50;99.90
2489;DHT22;1255;48.716;9.124;2024-01-07T15:35:49;0.50;99.90
2489;DHT22;1255;48.716;9.124;2024-01-07T15:38:15;0.50;99.90
2489;DHT22;1255;48.716;9.124;2024-01-07T15:40:42;0.40;99.90
2489;DHT22;1255;48.716;9.124;2024-01-07T15:43:11;0.40;99.90
2489;DHT22;1255;48.716;9.124;2024-01-07T15:45:38;0.30;99.90
2489;DHT22;1255;48.716;9.124;2024-01-07T15:48:05;0.30;99.90
2489;DHT22;1255;48.716;9.124;2024-01-07T15:50:32;0.30;99.90
2489;DHT22;1255;48.716;9.124;2024-01-07T15:52:58;0.30;99.90
2489;DHT22;1255;48.716;9.124;2024-01-07T15:55:25;0.30;99.90
2489;DHT22;1255;48.716;9.124;2024-01-07T15:57:52;0.30;99.90
2489;DHT22;1255;48.716;9.124;2024-01-07T16:00:20;0.20;99.90
2489;DHT22;1255;48.716;9.124;2024-01-07T16:02:47;0.20;99.90
2489;DHT22;1255;48.716;9.124;2024-01-07T16:05:14;0.20;99.90
2489;DHT22;1255;48.716;9.124;2024-01-07T16:07:42;0.20;99.90
2489;DHT22;1255;48.716;9.124;2024-01-07T16:10:09;0.20;99.90
2489;DHT22;1255;48.716;9.124;2024-01-07T16:12:38;0.20;99.90
2489;DHT22;1255;48.716;9.124;2024-01-07T16:15:06;0.20;99.90
2489;DHT22;1255;48.716;9.124;2024-01-07T16:17:34;0.10;99.90